sensor_id;sensor_type;location;lat;lon;timestamp;pressure;altitude;pressure_sealevel;temperature;humidity
48606;BME280;8482;54.396;18.590;2023-07-02T00:01:49;99906.16;;;19.97;63.61
48606;BME280;8482;54.396;18.590;2023-07-02T00:04:16;99903.69;;;19.95;64.62
48606;BME280;8482;54.396;18.590;2023-07-02T00:06:48;99904.06;;;19.92;65.22
48606;BME280;8482;54.396;18.590;2023-07-02T00:09:15;99914.00;;;19.91;65.75
48606;BME280;8482;54.396;18.590;2023-07-02T00:11:44;99918.78;;;19.89;66.30
48606;BME280;8482;54.396;18.590;2023-07-02T00:14:12;99913.97;;;19.85;66.91
48606;BME280;8482;54.396;18.590;2023-07-02T00:16:44;99913.13;;;19.84;67.76
48606;BME280;8482;54.396;18.590;2023-07-02T00:19:13;99911.06;;;19.80;68.33
48606;BME280;8482;54.396;18.590;2023-07-02T00:21:39;99903.59;;;19.75;68.67
48606;BME280;8482;54.396;18.590;2023-07-02T00:24:07;99908.13;;;19.74;68.65
48606;BME280;8482;54.396;18.590;2023-07-02T00:26:35;99913.09;;;19.71;69.08
48606;BME280;8482;54.396;18.590;2023-07-02T00:29:03;99903.16;;;19.65;69.14
48606;BME280;8482;54.396;18.590;2023-07-02T00:31:31;99903.56;;;19.62;69.91
48606;BME280;8482;54.396;18.590;2023-07-02T00:33:57;99891.91;;;19.54;70.17
48606;BME280;8482;54.396;18.590;2023-07-02T00:36:23;99909.94;;;19.54;70.80
48606;BME280;8482;54.396;18.590;2023-07-02T00:38:49;99903.28;;;19.50;71.50
48606;BME280;8482;54.396;18.590;2023-07-02T00:41:16;99905.34;;;19.48;72.19
48606;BME280;8482;54.396;18.590;2023-07-02T00:43:41;99891.66;;;19.36;72.27
48606;BME280;8482;54.396;18.590;2023-07-02T00:46:18;99909.25;;;19.38;73.19
48606;BME280;8482;54.396;18.590;2023-07-02T00:48:53;99900.94;;;19.33;74.02
48606;BME280;8482;54.396;18.590;2023-07-02T00:51:21;99894.72;;;19.26;74.20
48606;BME280;8482;54.396;18.590;2023-07-02T00:53:50;99898.22;;;19.26;74.59
48606;BME280;8482;54.396;18.590;2023-07-02T00:56:17;99887.84;;;19.17;74.88
48606;BME280;8482;54.396;18.590;2023-07-02T00:58:46;99877.69;;;19.12;75.77
48606;BME280;8482;54.396;18.590;2023-07-02T01:01:20;99881.22;;;19.12;76.64
48606;BME280;8482;54.396;18.590;2023-07-02T01:03:58;99874.38;;;19.10;76.53
48606;BME280;8482;54.396;18.590;2023-07-02T01:06:34;99872.47;;;19.04;76.45
48606;BME280;8482;54.396;18.590;2023-07-02T01:09:05;99857.75;;;18.99;76.25
48606;BME280;8482;54.396;18.590;2023-07-02T01:11:34;99866.66;;;19.00;76.38
48606;BME280;8482;54.396;18.590;2023-07-02T01:14:18;99864.75;;;18.94;76.55
48606;BME280;8482;54.396;18.590;2023-07-02T01:16:48;99873.00;;;18.92;76.64
48606;BME280;8482;54.396;18.590;2023-07-02T01:19:46;99852.50;;;18.84;76.56
48606;BME280;8482;54.396;18.590;2023-07-02T01:22:21;99857.22;;;18.82;77.00
48606;BME280;8482;54.396;18.590;2023-07-02T01:24:48;99852.06;;;18.81;77.13
48606;BME280;8482;54.396;18.590;2023-07-02T01:27:15;99843.38;;;18.79;77.31
48606;BME280;8482;54.396;18.590;2023-07-02T01:29:42;99846.25;;;18.77;77.71
48606;BME280;8482;54.396;18.590;2023-07-02T01:32:10;99843.75;;;18.76;77.62
48606;BME280;8482;54.396;18.590;2023-07-02T01:34:37;99848.75;;;18.79;78.29
48606;BME280;8482;54.396;18.590;2023-07-02T01:37:04;99846.25;;;18.77;78.27
48606;BME280;8482;54.396;18.590;2023-07-02T01:39:30;99849.13;;;18.76;78.86
48606;BME280;8482;54.396;18.590;2023-07-02T01:42:17;99841.66;;;18.71;78.50
48606;BME280;8482;54.396;18.590;2023-07-02T01:44:45;99836.09;;;18.73;78.57
48606;BME280;8482;54.396;18.590;2023-07-02T01:47:11;99834.44;;;18.72;78.47
48606;BME280;8482;54.396;18.590;2023-07-02T01:49:37;99837.13;;;18.72;79.22
48606;BME280;8482;54.396;18.590;2023-07-02T01:52:05;99834.44;;;18.72;79.74
48606;BME280;8482;54.396;18.590;2023-07-02T01:54:33;99830.91;;;18.71;79.94
48606;BME280;8482;54.396;18.590;2023-07-02T01:56:59;99826.97;;;18.67;79.71
48606;BME280;8482;54.396;18.590;2023-07-02T01:59:25;99820.38;;;18.69;79.77
48606;BME280;8482;54.396;18.590;2023-07-02T02:01:52;99823.06;;;18.69;79.81
48606;BME280;8482;54.396;18.590;2023-07-02T02:04:18;99821.41;;;18.68;79.73
48606;BME280;8482;54.396;18.590;2023-07-02T02:06:44;99815.59;;;18.65;79.89
48606;BME280;8482;54.396;18.590;2023-07-02T02:09:09;99816.81;;;18.62;80.59
48606;BME280;8482;54.396;18.590;2023-07-02T02:11:40;99814.56;;;18.66;80.94
48606;BME280;8482;54.396;18.590;2023-07-02T02:14:07;99810.41;;;18.63;81.03
48606;BME280;8482;54.396;18.590;2023-07-02T02:16:33;99809.59;;;18.63;81.03
48606;BME280;8482;54.396;18.590;2023-07-02T02:19:02;99811.00;;;18.59;80.48
48606;BME280;8482;54.396;18.590;2023-07-02T02:21:28;99812.47;;;18.61;80.58
48606;BME280;8482;54.396;18.590;2023-07-02T02:23:54;99809.78;;;18.61;80.80
48606;BME280;8482;54.396;18.590;2023-07-02T02:26:22;99809.13;;;18.59;80.63
48606;BME280;8482;54.396;18.590;2023-07-02T02:28:49;99813.69;;;18.59;80.65
48606;BME280;8482;54.396;18.590;2023-07-02T02:31:16;99806.28;;;18.61;80.84
48606;BME280;8482;54.396;18.590;2023-07-02T02:33:42;99814.34;;;18.61;80.81
48606;BME280;8482;54.396;18.590;2023-07-02T02:36:08;99819.50;;;18.62;80.92
48606;BME280;8482;54.396;18.590;2023-07-02T02:38:34;99811.66;;;18.61;81.05
48606;BME280;8482;54.396;18.590;2023-07-02T02:41:00;99814.13;;;18.62;81.17
48606;BME280;8482;54.396;18.590;2023-07-02T02:43:27;99813.94;;;18.64;81.17
48606;BME280;8482;54.396;18.590;2023-07-02T02:45:53;99808.75;;;18.62;80.91
48606;BME280;8482;54.396;18.590;2023-07-02T02:48:19;99802.94;;;18.59;81.26
48606;BME280;8482;54.396;18.590;2023-07-02T02:50:45;99800.06;;;18.60;81.59
48606;BME280;8482;54.396;18.590;2023-07-02T02:53:11;99806.69;;;18.64;81.44
48606;BME280;8482;54.396;18.590;2023-07-02T02:55:37;99802.19;;;18.65;81.19
48606;BME280;8482;54.396;18.590;2023-07-02T02:58:03;99793.47;;;18.63;81.20
48606;BME280;8482;54.396;18.590;2023-07-02T03:00:29;99800.31;;;18.65;81.40
48606;BME280;8482;54.396;18.590;2023-07-02T03:02:55;99796.34;;;18.61;81.36
48606;BME280;8482;54.396;18.590;2023-07-02T03:05:22;99803.00;;;18.65;81.51
48606;BME280;8482;54.396;18.590;2023-07-02T03:07:49;99786.06;;;18.65;81.47
48606;BME280;8482;54.396;18.590;2023-07-02T03:10:15;99781.91;;;18.62;81.57
48606;BME280;8482;54.396;18.590;2023-07-02T03:12:41;99788.13;;;18.63;81.53
48606;BME280;8482;54.396;18.590;2023-07-02T03:15:07;99782.91;;;18.61;81.71
48606;BME280;8482;54.396;18.590;2023-07-02T03:17:35;99781.69;;;18.57;81.69
48606;BME280;8482;54.396;18.590;2023-07-02T03:20:02;99786.44;;;18.62;81.85
48606;BME280;8482;54.396;18.590;2023-07-02T03:22:30;99780.22;;;18.61;81.92
48606;BME280;8482;54.396;18.590;2023-07-02T03:24:57;99790.78;;;18.63;81.78
48606;BME280;8482;54.396;18.590;2023-07-02T03:27:22;99787.69;;;18.66;81.95
48606;BME280;8482;54.396;18.590;2023-07-02T03:29:48;99776.13;;;18.65;81.80
48606;BME280;8482;54.396;18.590;2023-07-02T03:32:14;99779.47;;;18.67;82.02
48606;BME280;8482;54.396;18.590;2023-07-02T03:34:40;99771.78;;;18.64;82.01
48606;BME280;8482;54.396;18.590;2023-07-02T03:37:07;99771.41;;;18.67;82.20
48606;BME280;8482;54.396;18.590;2023-07-02T03:39:33;99773.25;;;18.67;82.53
48606;BME280;8482;54.396;18.590;2023-07-02T03:41:59;99770.38;;;18.68;82.54
48606;BME280;8482;54.396;18.590;2023-07-02T03:44:25;99775.53;;;18.70;82.56
48606;BME280;8482;54.396;18.590;2023-07-02T03:46:51;99777.41;;;18.69;82.55
48606;BME280;8482;54.396;18.590;2023-07-02T03:49:16;99777.19;;;18.71;82.29
48606;BME280;8482;54.396;18.590;2023-07-02T03:51:42;99772.84;;;18.70;82.11
48606;BME280;8482;54.396;18.590;2023-07-02T03:54:08;99783.59;;;18.70;82.05
48606;BME280;8482;54.396;18.590;2023-07-02T03:56:34;99783.59;;;18.70;82.31
48606;BME280;8482;54.396;18.590;2023-07-02T03:58:59;99786.50;;;18.68;82.23
48606;BME280;8482;54.396;18.590;2023-07-02T04:01:25;99778.44;;;18.68;82.26
48606;BME280;8482;54.396;18.590;2023-07-02T04:03:52;99777.59;;;18.68;82.34
48606;BME280;8482;54.396;18.590;2023-07-02T04:06:18;99782.78;;;18.69;82.45
48606;BME280;8482;54.396;18.590;2023-07-02T04:08:44;99767.47;;;18.70;82.38
48606;BME280;8482;54.396;18.590;2023-07-02T04:11:11;99772.84;;;18.70;82.68
48606;BME280;8482;54.396;18.590;2023-07-02T04:13:39;99766.44;;;18.71;82.66
48606;BME280;8482;54.396;18.590;2023-07-02T04:16:05;99756.56;;;18.72;82.62
48606;BME280;8482;54.396;18.590;2023-07-02T04:18:32;99747.66;;;18.71;82.58
48606;BME280;8482;54.396;18.590;2023-07-02T04:20:58;99765.47;;;18.79;82.81
48606;BME280;8482;54.396;18.590;2023-07-02T04:23:25;99774.56;;;18.84;82.53
48606;BME280;8482;54.396;18.590;2023-07-02T04:25:51;99755.97;;;18.83;82.16
48606;BME280;8482;54.396;18.590;2023-07-02T04:28:17;99759.09;;;18.87;82.09
48606;BME280;8482;54.396;18.590;2023-07-02T04:30:43;99765.09;;;18.89;82.41
48606;BME280;8482;54.396;18.590;2023-07-02T04:33:10;99766.94;;;18.88;82.22
48606;BME280;8482;54.396;18.590;2023-07-02T04:35:40;99761.38;;;18.90;82.02
48606;BME280;8482;54.396;18.590;2023-07-02T04:38:06;99747.09;;;18.89;81.76
48606;BME280;8482;54.396;18.590;2023-07-02T04:40:32;99753.31;;;18.90;81.83
48606;BME280;8482;54.396;18.590;2023-07-02T04:42:58;99750.41;;;18.91;81.95
48606;BME280;8482;54.396;18.590;2023-07-02T04:45:26;99746.53;;;18.94;82.00
48606;BME280;8482;54.396;18.590;2023-07-02T04:47:52;99750.69;;;18.96;82.05
48606;BME280;8482;54.396;18.590;2023-07-02T04:50:19;99764.31;;;18.95;81.78
48606;BME280;8482;54.396;18.590;2023-07-02T04:52:45;99749.41;;;18.92;82.24
48606;BME280;8482;54.396;18.590;2023-07-02T04:55:11;99761.84;;;19.00;82.14
48606;BME280;8482;54.396;18.590;2023-07-02T04:57:37;99759.97;;;19.01;82.45
48606;BME280;8482;54.396;18.590;2023-07-02T05:00:05;99762.28;;;19.04;82.49
48606;BME280;8482;54.396;18.590;2023-07-02T05:02:34;99766.84;;;19.03;82.21
48606;BME280;8482;54.396;18.590;2023-07-02T05:05:00;99763.94;;;19.05;82.17
48606;BME280;8482;54.396;18.590;2023-07-02T05:07:26;99757.75;;;19.04;81.79
48606;BME280;8482;54.396;18.590;2023-07-02T05:09:51;99755.88;;;19.05;81.89
48606;BME280;8482;54.396;18.590;2023-07-02T05:12:19;99753.81;;;19.07;81.93
48606;BME280;8482;54.396;18.590;2023-07-02T05:14:45;99761.03;;;19.06;81.91
48606;BME280;8482;54.396;18.590;2023-07-02T05:17:12;99761.50;;;19.10;81.88
48606;BME280;8482;54.396;18.590;2023-07-02T05:19:40;99756.09;;;19.10;81.92
48606;BME280;8482;54.396;18.590;2023-07-02T05:22:07;99743.31;;;19.12;81.87
48606;BME280;8482;54.396;18.590;2023-07-02T05:24:33;99747.03;;;19.11;81.88
48606;BME280;8482;54.396;18.590;2023-07-02T05:26:59;99744.94;;;19.13;81.79
48606;BME280;8482;54.396;18.590;2023-07-02T05:29:25;99757.16;;;19.16;82.07
48606;BME280;8482;54.396;18.590;2023-07-02T05:31:50;99747.03;;;19.18;81.99
48606;BME280;8482;54.396;18.590;2023-07-02T05:34:16;99740.41;;;19.13;82.09
48606;BME280;8482;54.396;18.590;2023-07-02T05:36:42;99745.81;;;19.27;81.63
48606;BME280;8482;54.396;18.590;2023-07-02T05:39:08;99760.69;;;19.29;81.78
48606;BME280;8482;54.396;18.590;2023-07-02T05:41:34;99758.00;;;19.29;81.52
48606;BME280;8482;54.396;18.590;2023-07-02T05:44:00;99764.84;;;19.32;81.11
48606;BME280;8482;54.396;18.590;2023-07-02T05:46:26;99759.66;;;19.30;81.04
48606;BME280;8482;54.396;18.590;2023-07-02T05:48:52;99753.25;;;19.32;80.69
48606;BME280;8482;54.396;18.590;2023-07-02T05:51:22;99741.47;;;19.33;80.27
48606;BME280;8482;54.396;18.590;2023-07-02T05:53:49;99745.44;;;19.37;80.16
48606;BME280;8482;54.396;18.590;2023-07-02T05:56:16;99752.47;;;19.38;79.78
48606;BME280;8482;54.396;18.590;2023-07-02T05:58:41;99757.41;;;19.41;79.71
48606;BME280;8482;54.396;18.590;2023-07-02T06:01:07;99747.50;;;19.41;79.61
48606;BME280;8482;54.396;18.590;2023-07-02T06:03:33;99754.53;;;19.42;79.52
48606;BME280;8482;54.396;18.590;2023-07-02T06:05:59;99752.03;;;19.41;79.91
48606;BME280;8482;54.396;18.590;2023-07-02T06:08:25;99752.03;;;19.41;79.84
48606;BME280;8482;54.396;18.590;2023-07-02T06:10:51;99757.00;;;19.44;79.97
48606;BME280;8482;54.396;18.590;2023-07-02T06:13:17;99763.63;;;19.41;79.81
48606;BME280;8482;54.396;18.590;2023-07-02T06:15:43;99745.00;;;19.40;79.59
48606;BME280;8482;54.396;18.590;2023-07-02T06:18:09;99743.56;;;19.37;79.67
48606;BME280;8482;54.396;18.590;2023-07-02T06:20:35;99748.72;;;19.39;80.07
48606;BME280;8482;54.396;18.590;2023-07-02T06:23:01;99753.69;;;19.35;80.55
48606;BME280;8482;54.396;18.590;2023-07-02T06:25:27;99747.50;;;19.35;80.98
48606;BME280;8482;54.396;18.590;2023-07-02T06:27:53;99751.22;;;19.34;81.40
48606;BME280;8482;54.396;18.590;2023-07-02T06:30:22;99735.25;;;19.32;81.46
48606;BME280;8482;54.396;18.590;2023-07-02T06:32:47;99740.84;;;19.30;81.79
48606;BME280;8482;54.396;18.590;2023-07-02T06:35:13;99735.88;;;19.27;81.62
48606;BME280;8482;54.396;18.590;2023-07-02T06:37:39;99742.28;;;19.26;81.85
48606;BME280;8482;54.396;18.590;2023-07-02T06:40:06;99739.00;;;19.24;81.92
48606;BME280;8482;54.396;18.590;2023-07-02T06:42:32;99737.50;;;19.22;82.10
48606;BME280;8482;54.396;18.590;2023-07-02T06:44:59;99749.75;;;19.24;81.97
48606;BME280;8482;54.396;18.590;2023-07-02T06:47:24;99740.03;;;19.23;82.22
48606;BME280;8482;54.396;18.590;2023-07-02T06:49:52;99746.44;;;19.22;82.55
48606;BME280;8482;54.396;18.590;2023-07-02T06:52:18;99748.28;;;19.22;82.66
48606;BME280;8482;54.396;18.590;2023-07-02T06:54:44;99747.44;;;19.21;82.94
48606;BME280;8482;54.396;18.590;2023-07-02T06:57:10;99752.19;;;19.19;83.08
48606;BME280;8482;54.396;18.590;2023-07-02T06:59:36;99760.25;;;19.19;83.27
48606;BME280;8482;54.396;18.590;2023-07-02T07:02:02;99759.44;;;19.19;83.42
48606;BME280;8482;54.396;18.590;2023-07-02T07:04:28;99760.47;;;19.18;83.28
48606;BME280;8482;54.396;18.590;2023-07-02T07:06:54;99759.00;;;19.15;83.32
48606;BME280;8482;54.396;18.590;2023-07-02T07:09:21;99755.09;;;19.18;83.40
48606;BME280;8482;54.396;18.590;2023-07-02T07:11:47;99754.88;;;19.12;82.62
48606;BME280;8482;54.396;18.590;2023-07-02T07:14:14;99764.59;;;19.13;82.87
48606;BME280;8482;54.396;18.590;2023-07-02T07:16:40;99788.38;;;19.17;82.25
48606;BME280;8482;54.396;18.590;2023-07-02T07:19:06;99794.97;;;19.14;82.66
48606;BME280;8482;54.396;18.590;2023-07-02T07:21:36;99798.28;;;19.09;80.34
48606;BME280;8482;54.396;18.590;2023-07-02T07:24:02;99798.25;;;19.03;79.21
48606;BME280;8482;54.396;18.590;2023-07-02T07:26:27;99794.91;;;18.94;78.27
48606;BME280;8482;54.396;18.590;2023-07-02T07:28:53;99798.53;;;18.86;77.24
48606;BME280;8482;54.396;18.590;2023-07-02T07:31:24;99800.38;;;18.79;75.90
48606;BME280;8482;54.396;18.590;2023-07-02T07:33:50;99797.22;;;18.68;75.64
48606;BME280;8482;54.396;18.590;2023-07-02T07:36:16;99798.00;;;18.62;75.85
48606;BME280;8482;54.396;18.590;2023-07-02T07:38:43;99809.97;;;18.60;75.67
48606;BME280;8482;54.396;18.590;2023-07-02T07:41:09;99814.94;;;18.56;76.02
48606;BME280;8482;54.396;18.590;2023-07-02T07:43:35;99818.22;;;18.51;76.57
48606;BME280;8482;54.396;18.590;2023-07-02T07:46:01;99819.41;;;18.49;76.71
48606;BME280;8482;54.396;18.590;2023-07-02T07:48:27;99825.19;;;18.46;77.48
48606;BME280;8482;54.396;18.590;2023-07-02T07:50:53;99824.78;;;18.49;77.19
48606;BME280;8482;54.396;18.590;2023-07-02T07:53:18;99835.72;;;18.47;76.25
48606;BME280;8482;54.396;18.590;2023-07-02T07:55:44;99830.09;;;18.42;75.80
48606;BME280;8482;54.396;18.590;2023-07-02T07:58:10;99847.06;;;18.43;74.71
48606;BME280;8482;54.396;18.590;2023-07-02T08:00:36;99831.50;;;18.31;74.15
48606;BME280;8482;54.396;18.590;2023-07-02T08:03:03;99853.56;;;18.33;74.39
48606;BME280;8482;54.396;18.590;2023-07-02T08:05:30;99864.31;;;18.33;74.08
48606;BME280;8482;54.396;18.590;2023-07-02T08:07:56;99863.69;;;18.31;72.59
48606;BME280;8482;54.396;18.590;2023-07-02T08:10:23;99858.47;;;18.23;71.72
48606;BME280;8482;54.396;18.590;2023-07-02T08:12:51;99869.56;;;18.20;71.73
48606;BME280;8482;54.396;18.590;2023-07-02T08:15:18;99872.84;;;18.15;71.62
48606;BME280;8482;54.396;18.590;2023-07-02T08:17:44;99872.78;;;18.08;71.82
48606;BME280;8482;54.396;18.590;2023-07-02T08:20:11;99866.53;;;18.01;71.76
48606;BME280;8482;54.396;18.590;2023-07-02T08:22:39;99852.38;;;17.92;72.13
48606;BME280;8482;54.396;18.590;2023-07-02T08:25:06;99857.31;;;17.89;72.59
48606;BME280;8482;54.396;18.590;2023-07-02T08:27:32;99859.13;;;17.88;72.45
48606;BME280;8482;54.396;18.590;2023-07-02T08:29:58;99853.16;;;17.86;72.79
48606;BME280;8482;54.396;18.590;2023-07-02T08:32:24;99848.97;;;17.84;72.56
48606;BME280;8482;54.396;18.590;2023-07-02T08:34:50;99848.75;;;17.79;72.50
48606;BME280;8482;54.396;18.590;2023-07-02T08:37:17;99859.91;;;17.82;72.73
48606;BME280;8482;54.396;18.590;2023-07-02T08:39:43;99864.44;;;17.82;73.29
48606;BME280;8482;54.396;18.590;2023-07-02T08:42:09;99862.16;;;17.79;73.88
48606;BME280;8482;54.396;18.590;2023-07-02T08:44:35;99854.72;;;17.81;74.04
48606;BME280;8482;54.396;18.590;2023-07-02T08:47:02;99861.38;;;17.85;74.56
48606;BME280;8482;54.396;18.590;2023-07-02T08:49:28;99852.31;;;17.86;75.04
48606;BME280;8482;54.396;18.590;2023-07-02T08:51:54;99855.44;;;17.89;75.77
48606;BME280;8482;54.396;18.590;2023-07-02T08:54:20;99859.59;;;17.92;75.80
48606;BME280;8482;54.396;18.590;2023-07-02T08:56:46;99852.81;;;17.96;76.26
48606;BME280;8482;54.396;18.590;2023-07-02T08:59:12;99850.81;;;17.98;76.68
48606;BME280;8482;54.396;18.590;2023-07-02T09:01:50;99851.13;;;18.10;76.29
48606;BME280;8482;54.396;18.590;2023-07-02T09:04:26;99851.56;;;18.14;76.72
48606;BME280;8482;54.396;18.590;2023-07-02T09:07:10;99862.81;;;18.24;76.70
48606;BME280;8482;54.396;18.590;2023-07-02T09:09:48;99864.72;;;18.30;76.55
48606;BME280;8482;54.396;18.590;2023-07-02T09:12:30;99863.28;;;18.34;75.89
48606;BME280;8482;54.396;18.590;2023-07-02T09:15:05;99860.09;;;18.46;74.99
48606;BME280;8482;54.396;18.590;2023-07-02T09:17:36;99858.88;;;18.48;74.45
48606;BME280;8482;54.396;18.590;2023-07-02T09:20:05;99849.44;;;18.59;73.45
48606;BME280;8482;54.396;18.590;2023-07-02T09:22:37;99855.44;;;18.61;73.14
48606;BME280;8482;54.396;18.590;2023-07-02T09:25:04;99852.19;;;18.73;72.41
48606;BME280;8482;54.396;18.590;2023-07-02T09:27:41;99873.56;;;18.81;71.69
48606;BME280;8482;54.396;18.590;2023-07-02T09:30:13;99862.41;;;18.84;70.82
48606;BME280;8482;54.396;18.590;2023-07-02T09:32:42;99860.59;;;18.91;69.92
48606;BME280;8482;54.396;18.590;2023-07-02T09:35:08;99871.19;;;18.99;69.67
48606;BME280;8482;54.396;18.590;2023-07-02T09:37:34;99887.97;;;19.02;69.26
48606;BME280;8482;54.396;18.590;2023-07-02T09:40:01;99876.59;;;19.06;68.49
48606;BME280;8482;54.396;18.590;2023-07-02T09:42:28;99881.56;;;19.03;67.87
48606;BME280;8482;54.396;18.590;2023-07-02T09:44:59;99878.28;;;19.07;67.76
48606;BME280;8482;54.396;18.590;2023-07-02T09:47:27;99878.09;;;19.09;67.73
48606;BME280;8482;54.396;18.590;2023-07-02T09:49:59;99872.72;;;19.09;67.24
48606;BME280;8482;54.396;18.590;2023-07-02T09:52:26;99872.28;;;19.05;67.49
48606;BME280;8482;54.396;18.590;2023-07-02T09:54:53;99868.78;;;19.11;68.02
48606;BME280;8482;54.396;18.590;2023-07-02T09:57:19;99873.56;;;19.16;67.43
48606;BME280;8482;54.396;18.590;2023-07-02T09:59:45;99885.78;;;19.19;67.48
48606;BME280;8482;54.396;18.590;2023-07-02T10:02:13;99882.69;;;19.22;66.50
48606;BME280;8482;54.396;18.590;2023-07-02T10:04:47;99884.78;;;19.26;66.81
48606;BME280;8482;54.396;18.590;2023-07-02T10:07:30;99890.78;;;19.28;67.19
48606;BME280;8482;54.396;18.590;2023-07-02T10:09:56;99884.81;;;19.33;67.22
48606;BME280;8482;54.396;18.590;2023-07-02T10:12:25;99901.41;;;19.43;66.83
48606;BME280;8482;54.396;18.590;2023-07-02T10:14:54;99879.50;;;19.53;65.86
48606;BME280;8482;54.396;18.590;2023-07-02T10:17:32;99891.13;;;19.60;63.47
48606;BME280;8482;54.396;18.590;2023-07-02T10:20:06;99904.78;;;19.66;62.14
48606;BME280;8482;54.396;18.590;2023-07-02T10:22:47;99899.22;;;19.67;61.79
48606;BME280;8482;54.396;18.590;2023-07-02T10:25:28;99887.63;;;19.67;61.09
48606;BME280;8482;54.396;18.590;2023-07-02T10:27:55;99904.22;;;19.70;60.74
48606;BME280;8482;54.396;18.590;2023-07-02T10:30:36;99900.91;;;19.75;60.92
48606;BME280;8482;54.396;18.590;2023-07-02T10:33:17;99917.69;;;19.77;60.26
48606;BME280;8482;54.396;18.590;2023-07-02T10:35:46;99908.13;;;19.74;59.45
48606;BME280;8482;54.396;18.590;2023-07-02T10:38:23;99917.06;;;19.75;58.96
48606;BME280;8482;54.396;18.590;2023-07-02T10:41:00;99925.13;;;19.75;58.53
48606;BME280;8482;54.396;18.590;2023-07-02T10:43:31;99910.22;;;19.79;57.52
48606;BME280;8482;54.396;18.590;2023-07-02T10:45:58;99921.59;;;19.74;57.10
48606;BME280;8482;54.396;18.590;2023-07-02T10:48:29;99916.84;;;19.76;57.19
48606;BME280;8482;54.396;18.590;2023-07-02T10:50:55;99935.50;;;19.78;56.86
48606;BME280;8482;54.396;18.590;2023-07-02T10:53:21;99922.63;;;19.73;56.76
48606;BME280;8482;54.396;18.590;2023-07-02T10:55:55;99920.53;;;19.69;57.08
48606;BME280;8482;54.396;18.590;2023-07-02T10:58:22;99928.88;;;19.81;57.24
48606;BME280;8482;54.396;18.590;2023-07-02T11:00:50;99932.19;;;19.83;57.56
48606;BME280;8482;54.396;18.590;2023-07-02T11:03:17;99926.22;;;19.87;57.09
48606;BME280;8482;54.396;18.590;2023-07-02T11:05:45;99950.03;;;19.90;57.00
48606;BME280;8482;54.396;18.590;2023-07-02T11:08:12;99965.97;;;19.92;56.73
48606;BME280;8482;54.396;18.590;2023-07-02T11:10:38;99955.00;;;19.94;55.73
48606;BME280;8482;54.396;18.590;2023-07-02T11:13:31;99968.47;;;19.94;55.19
48606;BME280;8482;54.396;18.590;2023-07-02T11:15:56;99990.59;;;19.89;53.69
48606;BME280;8482;54.396;18.590;2023-07-02T11:18:22;99972.34;;;19.84;52.75
48606;BME280;8482;54.396;18.590;2023-07-02T11:20:48;99981.03;;;19.80;52.82
48606;BME280;8482;54.396;18.590;2023-07-02T11:23:22;99971.50;;;19.77;53.03
48606;BME280;8482;54.396;18.590;2023-07-02T11:26:02;99972.31;;;19.78;53.34
48606;BME280;8482;54.396;18.590;2023-07-02T11:28:30;99974.75;;;19.72;53.03
48606;BME280;8482;54.396;18.590;2023-07-02T11:30:58;99978.91;;;19.68;53.22
48606;BME280;8482;54.396;18.590;2023-07-02T11:33:38;99974.56;;;19.67;52.95
48606;BME280;8482;54.396;18.590;2023-07-02T11:36:07;99984.91;;;19.64;53.51
48606;BME280;8482;54.396;18.590;2023-07-02T11:38:35;99970.81;;;19.62;53.61
48606;BME280;8482;54.396;18.590;2023-07-02T11:41:03;99963.75;;;19.60;54.04
48606;BME280;8482;54.396;18.590;2023-07-02T11:43:29;99958.59;;;19.66;54.25
48606;BME280;8482;54.396;18.590;2023-07-02T11:45:55;99945.78;;;19.68;54.02
48606;BME280;8482;54.396;18.590;2023-07-02T11:48:21;99941.66;;;19.72;54.01
48606;BME280;8482;54.396;18.590;2023-07-02T11:50:47;99933.00;;;19.83;53.52
48606;BME280;8482;54.396;18.590;2023-07-02T11:53:13;99937.81;;;19.88;53.62
48606;BME280;8482;54.396;18.590;2023-07-02T11:55:39;99936.19;;;20.00;53.33
48606;BME280;8482;54.396;18.590;2023-07-02T11:58:05;99952.81;;;20.17;52.34
48606;BME280;8482;54.396;18.590;2023-07-02T12:00:30;99959.03;;;20.31;52.51
48606;BME280;8482;54.396;18.590;2023-07-02T12:02:56;99973.53;;;20.44;52.27
48606;BME280;8482;54.396;18.590;2023-07-02T12:05:22;99955.09;;;20.54;52.07
48606;BME280;8482;54.396;18.590;2023-07-02T12:07:48;99944.97;;;20.63;52.26
48606;BME280;8482;54.396;18.590;2023-07-02T12:10:14;99948.72;;;20.75;52.45
48606;BME280;8482;54.396;18.590;2023-07-02T12:12:39;99953.47;;;20.87;52.68
48606;BME280;8482;54.396;18.590;2023-07-02T12:15:06;99952.41;;;21.01;52.86
48606;BME280;8482;54.396;18.590;2023-07-02T12:17:32;99959.44;;;21.16;53.16
48606;BME280;8482;54.396;18.590;2023-07-02T12:19:58;99948.84;;;21.27;52.37
48606;BME280;8482;54.396;18.590;2023-07-02T12:22:24;99950.03;;;21.38;52.22
48606;BME280;8482;54.396;18.590;2023-07-02T12:24:49;99941.31;;;21.50;51.65
48606;BME280;8482;54.396;18.590;2023-07-02T12:27:16;99952.09;;;21.63;50.64
48606;BME280;8482;54.396;18.590;2023-07-02T12:29:42;99961.16;;;21.76;50.33
48606;BME280;8482;54.396;18.590;2023-07-02T12:32:08;99970.66;;;21.85;49.34
48606;BME280;8482;54.396;18.590;2023-07-02T12:34:34;99973.34;;;21.92;48.72
48606;BME280;8482;54.396;18.590;2023-07-02T12:36:59;99960.66;;;21.92;48.62
48606;BME280;8482;54.396;18.590;2023-07-02T12:39:25;99964.34;;;21.98;48.19
48606;BME280;8482;54.396;18.590;2023-07-02T12:41:52;99971.84;;;22.02;47.88
48606;BME280;8482;54.396;18.590;2023-07-02T12:44:18;99991.78;;;22.01;47.65
48606;BME280;8482;54.396;18.590;2023-07-02T12:46:44;99989.47;;;22.05;47.61
48606;BME280;8482;54.396;18.590;2023-07-02T12:49:10;99986.13;;;22.10;47.26
48606;BME280;8482;54.396;18.590;2023-07-02T12:51:35;100000.00;;;22.13;47.20
48606;BME280;8482;54.396;18.590;2023-07-02T12:54:01;99997.06;;;22.22;46.31
48606;BME280;8482;54.396;18.590;2023-07-02T12:56:27;99999.50;;;22.30;46.15
48606;BME280;8482;54.396;18.590;2023-07-02T12:58:53;100006.53;;;22.38;45.75
48606;BME280;8482;54.396;18.590;2023-07-02T13:01:19;99985.72;;;22.45;45.32
48606;BME280;8482;54.396;18.590;2023-07-02T13:03:46;99994.81;;;22.50;45.29